Time;durP1;ratioP1;P1;durP2;ratioP2;P2;SDS_P1;SDS_P2;PMS_P1;PMS_P2;Temp;Humidity;BMP_temperature;BMP_pressure;BME280_temperature;BME280_humidity;BME280_pressure;Samples;Min_cycle;Max_cycle;Signal;HPM_P1;HPM_P2
2023/09/17 00:02:09;;;;;;;0.10;0.10;;;;;;;9.24;81.60;101017.13;5006398;28;20084;-67
2023/09/17 00:04:35;;;;;;;0.10;0.10;;;;;;;9.18;81.90;101010.72;5000448;28;20060;-67
2023/09/17 00:07:02;;;;;;;0.00;0.00;;;;;;;9.13;82.11;101019.59;5003883;28;20049;-67
2023/09/17 00:09:30;;;;;;;0.10;0.10;;;;;;;9.10;82.16;101024.69;5005231;28;20062;-68
2023/09/17 00:11:56;;;;;;;0.10;0.10;;;;;;;9.06;82.13;101027.09;5005211;28;20045;-67
2023/09/17 00:14:22;;;;;;;0.10;0.10;;;;;;;9.02;82.57;101021.25;5004066;28;20076;-66
2023/09/17 00:16:48;;;;;;;0.10;0.10;;;;;;;9.06;82.27;101025.16;5004889;28;20054;-68
2023/09/17 00:19:16;;;;;;;0.10;0.10;;;;;;;8.98;82.47;101030.97;5003706;28;20050;-67
2023/09/17 00:21:42;;;;;;;0.10;0.10;;;;;;;8.93;82.76;101036.28;5005719;28;20042;-70
2023/09/17 00:24:08;;;;;;;0.00;0.00;;;;;;;8.92;83.12;101040.09;4999248;28;20061;-71
2023/09/17 00:26:36;;;;;;;0.10;0.10;;;;;;;8.93;83.18;101039.88;5001882;28;20049;-70
2023/09/17 00:29:03;;;;;;;0.10;0.10;;;;;;;8.95;83.08;101036.88;4989337;28;20054;-70
2023/09/17 00:31:30;;;;;;;0.00;0.00;;;;;;;8.92;82.67;101035.47;5001727;28;20042;-70
2023/09/17 00:33:56;;;;;;;0.10;0.10;;;;;;;8.88;82.89;101033.44;4998512;28;20670;-67
2023/09/17 00:36:23;;;;;;;0.00;0.00;;;;;;;8.87;83.47;101031.78;5001509;28;20053;-67
2023/09/17 00:38:49;;;;;;;0.10;0.10;;;;;;;8.82;83.66;101037.94;5005278;28;20448;-68
2023/09/17 00:41:15;;;;;;;0.10;0.10;;;;;;;8.78;84.26;101039.47;5003730;28;20308;-67
2023/09/17 00:43:43;;;;;;;0.10;0.10;;;;;;;8.79;83.98;101041.13;5002370;28;20042;-67
2023/09/17 00:46:12;;;;;;;0.10;0.10;;;;;;;8.86;83.84;101038.28;5002116;28;20563;-68
2023/09/17 00:48:39;;;;;;;0.00;0.00;;;;;;;8.88;83.91;101033.44;5005689;28;20046;-67
2023/09/17 00:51:06;;;;;;;0.00;0.00;;;;;;;8.87;83.18;101032.59;5002568;28;20145;-67
2023/09/17 00:53:32;;;;;;;0.10;0.10;;;;;;;8.89;83.15;101038.63;5003138;28;20598;-66
2023/09/17 00:55:59;;;;;;;0.10;0.10;;;;;;;8.87;83.27;101026.31;4989903;28;20053;-66
2023/09/17 00:58:28;;;;;;;0.10;0.10;;;;;;;8.87;83.27;101031.78;5002217;28;20125;-68
2023/09/17 01:00:58;;;;;;;0.10;0.10;;;;;;;8.86;83.40;101028.19;5004815;28;20195;-70
2023/09/17 01:03:24;;;;;;;0.10;0.10;;;;;;;8.89;83.35;101037.81;5004384;28;20144;-70
2023/09/17 01:05:51;;;;;;;0.00;0.00;;;;;;;8.87;83.03;101039.97;5003205;28;20080;-70
2023/09/17 01:08:19;;;;;;;0.10;0.10;;;;;;;8.80;82.83;101029.16;5005410;28;20089;-69
2023/09/17 01:10:47;;;;;;;0.10;0.10;;;;;;;8.83;83.35;101025.13;5005872;28;20041;-67
2023/09/17 01:13:14;;;;;;;0.10;0.10;;;;;;;8.86;83.29;101033.66;5005020;28;20052;-65
2023/09/17 01:15:40;;;;;;;0.10;0.10;;;;;;;8.86;82.82;101025.47;5006007;28;20078;-67
2023/09/17 01:18:10;;;;;;;0.10;0.10;;;;;;;8.83;83.38;101027.88;5004664;28;20042;-66
2023/09/17 01:20:42;;;;;;;0.10;0.10;;;;;;;8.80;83.28;101020.97;5002822;28;20123;-66
2023/09/17 01:23:13;;;;;;;0.10;0.10;;;;;;;8.79;83.08;101020.13;4996289;28;20049;-66
2023/09/17 01:25:50;;;;;;;0.10;0.10;;;;;;;8.77;83.23;101013.25;4994924;28;20049;-67
2023/09/17 01:28:18;;;;;;;;;;;;;;;8.76;83.45;101015.13;5001171;28;20046;-67
2023/09/17 01:30:45;;;;;;;0.10;0.10;;;;;;;8.70;83.57;101015.25;5001870;28;19925;-67
2023/09/17 01:33:12;;;;;;;0.10;0.10;;;;;;;8.57;83.47;101011.63;5004829;28;20046;-67
2023/09/17 01:35:45;;;;;;;0.10;0.10;;;;;;;8.57;83.83;101021.72;5005821;28;20046;-66
2023/09/17 01:38:15;;;;;;;0.10;0.10;;;;;;;8.55;83.83;101016.50;5003938;28;20088;-67
2023/09/17 01:40:43;;;;;;;0.10;0.10;;;;;;;8.47;83.88;101023.06;5005035;28;20048;-70
2023/09/17 01:43:10;;;;;;;0.00;0.00;;;;;;;8.40;84.63;101016.88;5005108;28;20053;-70
2023/09/17 01:45:38;;;;;;;0.00;0.00;;;;;;;8.35;85.03;101025.75;5002071;28;20073;-70
2023/09/17 01:48:05;;;;;;;0.10;0.10;;;;;;;8.29;85.78;101021.22;5003233;28;20108;-71
2023/09/17 01:50:32;;;;;;;0.10;0.10;;;;;;;8.29;85.85;101023.94;5003138;28;20046;-69
2023/09/17 01:52:59;;;;;;;0.00;0.00;;;;;;;8.28;86.00;101021.44;5006423;28;20136;-66
2023/09/17 01:55:26;;;;;;;0.00;0.00;;;;;;;8.22;86.38;101012.28;5001995;28;20070;-66
2023/09/17 01:57:52;;;;;;;0.10;0.10;;;;;;;8.25;86.46;101019.19;5003311;28;20053;-70
2023/09/17 02:00:18;;;;;;;0.00;0.00;;;;;;;8.26;86.52;101018.13;5005159;28;20061;-67
2023/09/17 02:02:50;;;;;;;0.10;0.10;;;;;;;8.26;86.68;101029.84;5003691;28;20468;-67
2023/09/17 02:05:17;;;;;;;0.00;0.00;;;;;;;8.22;86.79;101015.00;5002529;28;20050;-66
2023/09/17 02:07:44;;;;;;;0.10;0.10;;;;;;;8.21;86.57;101016.06;5003672;28;20042;-67
2023/09/17 02:10:12;;;;;;;0.10;0.10;;;;;;;8.22;86.29;101012.28;5008997;28;20061;-67
2023/09/17 02:12:40;;;;;;;0.00;0.00;;;;;;;8.30;86.01;101024.78;5005324;28;20045;-67
2023/09/17 02:15:11;;;;;;;0.10;0.10;;;;;;;8.27;86.13;101025.22;5007323;28;20045;-67
2023/09/17 02:17:39;;;;;;;0.00;0.00;;;;;;;8.23;86.13;101020.25;5005899;28;20041;-67
2023/09/17 02:20:11;;;;;;;0.10;0.10;;;;;;;8.27;86.07;101019.78;5007492;28;20061;-67
2023/09/17 02:22:38;;;;;;;0.00;0.00;;;;;;;8.34;85.87;101025.97;5005010;28;20050;-66
2023/09/17 02:25:06;;;;;;;0.03;0.03;;;;;;;8.37;86.08;101029.06;4998533;28;20061;-67
2023/09/17 02:27:32;;;;;;;0.13;0.10;;;;;;;8.21;86.05;101003.31;5000183;28;20057;-69
2023/09/17 02:29:59;;;;;;;0.05;0.05;;;;;;;8.33;86.39;101033.31;4989960;28;20425;-67
2023/09/17 02:32:26;;;;;;;0.10;0.10;;;;;;;8.26;86.97;101029.03;5004749;28;20050;-66
2023/09/17 02:34:53;;;;;;;0.10;0.10;;;;;;;8.22;87.28;101040.38;5004728;28;20053;-67
2023/09/17 02:37:21;;;;;;;0.10;0.10;;;;;;;8.19;87.72;101032.66;5006844;28;20050;-70
2023/09/17 02:39:47;;;;;;;;;;;;;;;8.16;87.79;101029.56;5007223;28;20057;-70
2023/09/17 02:42:13;;;;;;;0.10;0.10;;;;;;;8.16;88.01;101035.00;4996710;28;19974;-67
2023/09/17 02:44:39;;;;;;;0.10;0.10;;;;;;;8.16;88.14;101041.28;4987371;28;20060;-66
2023/09/17 02:47:06;;;;;;;0.10;0.10;;;;;;;8.15;88.40;101031.44;4990383;28;20042;-67
2023/09/17 02:49:33;;;;;;;0.03;0.03;;;;;;;8.19;88.67;101038.09;5000797;28;20394;-67
2023/09/17 02:52:00;;;;;;;0.10;0.10;;;;;;;8.21;88.12;101026.97;5008876;28;20053;-69
2023/09/17 02:54:30;;;;;;;0.10;0.10;;;;;;;8.23;87.95;101039.31;4975564;28;20547;-67
2023/09/17 02:56:58;;;;;;;0.10;0.10;;;;;;;8.22;87.96;101037.66;5007106;28;20046;-70
2023/09/17 02:59:25;;;;;;;0.10;0.10;;;;;;;8.22;87.98;101037.66;5018373;28;20045;-70
2023/09/17 03:01:51;;;;;;;0.10;0.10;;;;;;;8.22;88.37;101047.72;5013702;28;20049;-70
2023/09/17 03:04:18;;;;;;;0.10;0.10;;;;;;;8.20;88.52;101039.78;4996091;28;20050;-66
2023/09/17 03:06:44;;;;;;;0.10;0.10;;;;;;;8.17;88.70;101045.66;4988645;28;20053;-70
2023/09/17 03:09:13;;;;;;;0.10;0.10;;;;;;;8.17;89.32;101045.66;4971270;28;20057;-70
2023/09/17 03:11:41;;;;;;;0.10;0.10;;;;;;;8.16;89.18;101049.44;5005398;28;20060;-70
2023/09/17 03:14:08;;;;;;;0.10;0.10;;;;;;;8.12;88.75;101045.53;5006247;28;20053;-69
2023/09/17 03:16:34;;;;;;;0.10;0.10;;;;;;;8.14;89.17;101045.31;5003033;28;20049;-70
2023/09/17 03:19:01;;;;;;;0.10;0.10;;;;;;;8.27;89.30;101056.03;5006863;28;20077;-70
2023/09/17 03:21:27;;;;;;;0.10;0.10;;;;;;;8.35;88.58;101057.59;5005254;28;20041;-70
2023/09/17 03:23:53;;;;;;;0.10;0.10;;;;;;;8.34;87.91;101055.94;5005286;28;20948;-70
2023/09/17 03:26:20;;;;;;;0.00;0.00;;;;;;;8.32;87.31;101056.19;5003264;28;20057;-70
2023/09/17 03:28:49;;;;;;;0.10;0.10;;;;;;;8.33;87.86;101055.13;5022214;28;20540;-70
2023/09/17 03:31:14;;;;;;;;;;;;;;;8.35;87.97;101053.00;5005778;28;20152;-67
2023/09/17 03:33:40;;;;;;;0.00;0.00;;;;;;;8.38;87.83;101058.00;5004080;28;20032;-70
2023/09/17 03:36:08;;;;;;;0.10;0.10;;;;;;;8.42;88.00;101060.25;5007339;28;20084;-69
2023/09/17 03:38:34;;;;;;;0.10;0.10;;;;;;;8.42;87.94;101058.38;5020062;28;20069;-71
2023/09/17 03:41:01;;;;;;;0.10;0.10;;;;;;;8.45;87.75;101059.81;5020029;28;20054;-70
2023/09/17 03:43:29;;;;;;;0.10;0.10;;;;;;;8.47;87.67;101047.59;4988943;28;20141;-67
2023/09/17 03:45:58;;;;;;;0.10;0.10;;;;;;;8.55;87.35;101048.38;5005933;28;20144;-69
2023/09/17 03:48:24;;;;;;;0.10;0.10;;;;;;;8.61;87.49;101051.03;5002184;28;20046;-70
2023/09/17 03:50:51;;;;;;;0.10;0.10;;;;;;;8.65;87.59;101052.22;4987434;28;20512;-70
2023/09/17 03:53:17;;;;;;;0.10;0.10;;;;;;;8.74;86.99;101060.06;5005617;28;20577;-70
2023/09/17 03:55:44;;;;;;;0.08;0.08;;;;;;;8.80;86.85;101057.22;4989863;28;20512;-68
2023/09/17 03:58:12;;;;;;;0.10;0.10;;;;;;;8.82;86.34;101056.16;5007026;28;20056;-70
2023/09/17 04:00:41;;;;;;;0.10;0.10;;;;;;;8.85;86.63;101056.53;5005390;28;20137;-70
2023/09/17 04:03:10;;;;;;;0.10;0.10;;;;;;;8.94;86.13;101043.41;5003913;28;20092;-70
2023/09/17 04:05:37;;;;;;;0.10;0.10;;;;;;;9.02;85.15;101059.44;5004949;28;20053;-70
2023/09/17 04:08:04;;;;;;;0.10;0.10;;;;;;;9.03;84.67;101055.66;5005377;28;20056;-71
2023/09/17 04:10:30;;;;;;;0.10;0.10;;;;;;;9.11;84.72;101059.94;5021385;28;20076;-70
2023/09/17 04:12:57;;;;;;;0.10;0.10;;;;;;;9.03;84.46;101038.44;5002903;28;20053;-69
2023/09/17 04:15:24;;;;;;;0.10;0.10;;;;;;;9.22;84.62;101064.59;5001498;28;20073;-70
2023/09/17 04:17:51;;;;;;;0.10;0.10;;;;;;;9.27;84.32;101060.31;5004514;28;20456;-68
2023/09/17 04:20:19;;;;;;;0.10;0.10;;;;;;;9.30;83.13;101054.38;5004614;28;20789;-70
2023/09/17 04:22:50;;;;;;;0.10;0.10;;;;;;;9.35;83.24;101062.69;5003743;28;20134;-70
2023/09/17 04:25:18;;;;;;;0.10;0.10;;;;;;;9.40;82.76;101062.00;5002959;28;20046;-70
2023/09/17 04:27:47;;;;;;;0.10;0.10;;;;;;;9.48;82.44;101058.94;4989377;28;20500;-70
2023/09/17 04:30:16;;;;;;;0.10;0.10;;;;;;;9.48;82.34;101048.81;5004325;28;20054;-69
2023/09/17 04:32:46;;;;;;;0.10;0.10;;;;;;;9.60;82.24;101054.31;5003467;28;20539;-70
2023/09/17 04:35:15;;;;;;;0.20;0.20;;;;;;;9.69;81.84;101053.94;4985028;28;20096;-70
2023/09/17 04:37:45;;;;;;;0.10;0.10;;;;;;;9.71;81.60;101071.75;4953169;28;20096;-70
2023/09/17 04:40:12;;;;;;;0.10;0.10;;;;;;;9.75;81.90;101061.16;4970555;28;21199;-69
2023/09/17 04:42:46;;;;;;;0.10;0.10;;;;;;;9.78;81.62;101066.97;5003197;28;20042;-67
2023/09/17 04:45:31;;;;;;;0.17;0.17;;;;;;;9.85;81.27;101064.13;5001924;28;20046;-70
2023/09/17 04:47:58;;;;;;;0.10;0.10;;;;;;;9.96;80.89;101067.09;5002102;28;20505;-70
2023/09/17 04:50:25;;;;;;;0.15;0.15;;;;;;;10.06;80.72;101062.69;4987912;28;20398;-67
2023/09/17 04:52:53;;;;;;;0.10;0.10;;;;;;;10.14;80.09;101066.09;4987801;28;20092;-67
2023/09/17 04:55:19;;;;;;;0.10;0.10;;;;;;;10.21;79.47;101064.06;5008959;28;20056;-70
2023/09/17 04:57:46;;;;;;;0.10;0.10;;;;;;;10.18;79.60;101064.56;4995986;28;20092;-69
2023/09/17 05:00:13;;;;;;;0.10;0.10;;;;;;;10.06;79.05;101042.69;5003025;28;20539;-70
2023/09/17 05:02:40;;;;;;;0.10;0.10;;;;;;;10.29;78.82;101069.16;4986192;28;20069;-67
2023/09/17 05:05:10;;;;;;;0.10;0.10;;;;;;;10.35;78.32;101065.47;5021275;28;20049;-71
2023/09/17 05:07:39;;;;;;;0.10;0.10;;;;;;;10.39;77.74;101063.09;4986190;28;20579;-67
2023/09/17 05:10:08;;;;;;;0.10;0.10;;;;;;;10.44;77.30;101065.09;5003123;28;20050;-70
2023/09/17 05:12:35;;;;;;;0.10;0.10;;;;;;;10.52;76.80;101062.00;4987613;28;20042;-67
2023/09/17 05:15:03;;;;;;;0.10;0.10;;;;;;;10.61;76.33;101067.91;5005970;28;20104;-67
2023/09/17 05:17:31;;;;;;;0.10;0.10;;;;;;;10.70;76.05;101063.72;5004928;28;20107;-67
2023/09/17 05:19:58;;;;;;;0.10;0.10;;;;;;;10.83;75.51;101070.78;5005818;28;20050;-66
2023/09/17 05:22:24;;;;;;;0.20;0.20;;;;;;;10.89;75.49;101072.53;5004997;28;20033;-67
2023/09/17 05:24:50;;;;;;;0.10;0.10;;;;;;;10.99;75.05;101073.78;5003600;28;20108;-67
2023/09/17 05:27:19;;;;;;;0.10;0.10;;;;;;;11.06;74.84;101071.72;5001806;28;20408;-68
2023/09/17 05:29:46;;;;;;;0.10;0.10;;;;;;;11.19;74.67;101074.13;5003154;28;20517;-67
2023/09/17 05:32:12;;;;;;;0.10;0.10;;;;;;;11.41;73.82;101073.41;5004492;28;20140;-66
2023/09/17 05:34:38;;;;;;;0.10;0.10;;;;;;;11.56;72.85;101063.78;5002065;28;20707;-67
2023/09/17 05:37:04;;;;;;;0.10;0.10;;;;;;;11.86;71.57;101071.59;5003946;28;20057;-68
2023/09/17 05:39:31;;;;;;;0.10;0.10;;;;;;;12.08;69.90;101059.84;5011887;28;20187;-67
2023/09/17 05:41:57;;;;;;;0.10;0.10;;;;;;;12.15;69.13;101041.31;5005986;28;20081;-67
2023/09/17 05:44:25;;;;;;;0.10;0.10;;;;;;;12.51;68.69;101070.25;5003726;28;20045;-68
2023/09/17 05:46:51;;;;;;;0.15;0.15;;;;;;;12.63;67.60;101063.53;5006392;28;20512;-71
2023/09/17 05:49:20;;;;;;;0.20;0.20;;;;;;;12.67;66.88;101061.09;5005718;28;20618;-72
2023/09/17 05:51:46;;;;;;;0.20;0.20;;;;;;;12.68;66.28;101064.69;5006039;28;20137;-70
2023/09/17 05:54:12;;;;;;;0.20;0.20;;;;;;;12.73;66.29;101059.25;5004758;28;20049;-70
2023/09/17 05:56:39;;;;;;;0.20;0.20;;;;;;;12.75;65.82;101065.31;4989519;28;20449;-70
2023/09/17 05:59:05;;;;;;;0.13;0.13;;;;;;;12.78;65.17;101062.03;5008453;28;20054;-71
2023/09/17 06:01:33;;;;;;;0.20;0.20;;;;;;;12.82;64.83;101051.38;5005694;28;20049;-70
2023/09/17 06:04:00;;;;;;;0.20;0.20;;;;;;;12.89;64.43;101058.31;5006580;28;20050;-70
2023/09/17 06:06:26;;;;;;;0.20;0.20;;;;;;;12.92;64.81;101056.97;4975613;28;20073;-70
2023/09/17 06:08:52;;;;;;;0.20;0.20;;;;;;;13.01;64.30;101057.31;5005491;28;20057;-70
2023/09/17 06:11:19;;;;;;;0.10;0.10;;;;;;;13.12;64.05;101050.00;5005754;28;20455;-70
2023/09/17 06:13:45;;;;;;;0.20;0.20;;;;;;;13.17;63.56;101047.28;5006934;28;20141;-70
2023/09/17 06:16:11;;;;;;;0.20;0.20;;;;;;;13.29;63.37;101050.69;5007187;28;20050;-70
2023/09/17 06:18:39;;;;;;;0.20;0.20;;;;;;;13.46;62.63;101061.56;5007088;28;20304;-70
2023/09/17 06:21:05;;;;;;;0.20;0.20;;;;;;;13.33;61.51;101029.03;5003732;28;20064;-70
2023/09/17 06:23:32;;;;;;;0.20;0.20;;;;;;;13.68;61.15;101049.63;5006049;28;20630;-71
2023/09/17 06:25:59;;;;;;;0.20;0.20;;;;;;;13.90;60.67;101056.91;5004964;28;20145;-71
2023/09/17 06:28:26;;;;;;;0.20;0.20;;;;;;;13.99;60.03;101058.03;5007294;28;20061;-70
2023/09/17 06:30:53;;;;;;;0.20;0.20;;;;;;;14.08;59.61;101055.59;5007866;28;20176;-70
2023/09/17 06:33:19;;;;;;;0.20;0.20;;;;;;;14.22;59.54;101050.47;5006871;28;20092;-70
2023/09/17 06:35:48;;;;;;;0.20;0.20;;;;;;;14.26;59.27;101043.31;5008022;28;20053;-70
2023/09/17 06:38:15;;;;;;;0.20;0.20;;;;;;;14.52;59.03;101048.06;5005955;28;20376;-70
2023/09/17 06:40:41;;;;;;;0.20;0.20;;;;;;;14.76;58.13;101042.91;4990310;28;20133;-71
2023/09/17 06:43:07;;;;;;;0.20;0.20;;;;;;;14.71;57.71;101035.47;5007256;28;20128;-71
2023/09/17 06:45:33;;;;;;;0.20;0.20;;;;;;;14.89;57.23;101044.31;5005592;28;20371;-69
2023/09/17 06:48:00;;;;;;;0.20;0.20;;;;;;;14.84;56.98;101050.66;5023385;28;20060;-68
2023/09/17 06:50:26;;;;;;;0.22;0.22;;;;;;;14.79;57.58;101047.88;5007397;28;20073;-67
2023/09/17 06:52:53;;;;;;;0.20;0.20;;;;;;;14.94;56.93;101044.34;5007614;28;20069;-68
2023/09/17 06:55:20;;;;;;;0.22;0.22;;;;;;;15.20;55.63;101040.75;5005916;28;20050;-70
2023/09/17 06:57:46;;;;;;;0.20;0.20;;;;;;;15.21;55.20;101036.91;5008695;28;20046;-68
2023/09/17 07:00:14;;;;;;;0.20;0.20;;;;;;;15.37;55.34;101038.53;5014732;28;20071;-67
2023/09/17 07:02:40;;;;;;;0.30;0.30;;;;;;;15.53;54.61;101033.00;5007654;28;20092;-67
2023/09/17 07:05:08;;;;;;;0.30;0.30;;;;;;;15.80;54.31;101038.19;4990581;28;20073;-70
2023/09/17 07:07:34;;;;;;;0.30;0.30;;;;;;;16.06;52.96;101021.59;5003246;28;20049;-71
2023/09/17 07:10:04;;;;;;;0.30;0.30;;;;;;;16.20;52.93;101020.97;5000097;28;20525;-69
2023/09/17 07:12:35;;;;;;;0.20;0.20;;;;;;;16.41;52.24;101025.28;4984121;28;20184;-68
2023/09/17 07:15:02;;;;;;;0.30;0.30;;;;;;;16.47;51.45;101022.47;5008120;28;20053;-68
2023/09/17 07:17:30;;;;;;;0.20;0.20;;;;;;;16.52;51.17;101014.19;5009455;28;20050;-68
2023/09/17 07:19:56;;;;;;;0.30;0.30;;;;;;;16.70;51.18;101007.13;5005877;28;20580;-67
2023/09/17 07:22:22;;;;;;;0.30;0.30;;;;;;;17.00;50.17;101008.06;5004215;28;20069;-68
2023/09/17 07:24:55;;;;;;;0.30;0.30;;;;;;;17.49;49.01;101013.72;5005781;28;20042;-68
2023/09/17 07:27:23;;;;;;;0.30;0.30;;;;;;;17.71;48.27;101011.25;5005849;28;20067;-68
2023/09/17 07:29:49;;;;;;;0.30;0.30;;;;;;;17.81;48.24;101009.50;5004802;28;20321;-68
2023/09/17 07:32:16;;;;;;;0.30;0.30;;;;;;;18.17;47.12;101013.78;5006762;28;20145;-68
2023/09/17 07:34:43;;;;;;;0.30;0.30;;;;;;;18.30;46.50;101001.16;5007659;28;20046;-67
2023/09/17 07:37:10;;;;;;;0.30;0.30;;;;;;;18.59;45.86;101002.97;4984810;28;20057;-68
2023/09/17 07:39:38;;;;;;;0.30;0.30;;;;;;;18.80;45.71;100998.75;5005983;28;20172;-68
2023/09/17 07:42:05;;;;;;;0.30;0.30;;;;;;;18.96;44.56;100998.50;5001562;28;20033;-71
2023/09/17 07:44:32;;;;;;;0.30;0.30;;;;;;;19.17;43.68;101003.72;5005636;28;20038;-68
2023/09/17 07:46:59;;;;;;;0.30;0.30;;;;;;;19.13;43.40;100984.94;4998139;28;20049;-69
2023/09/17 07:49:28;;;;;;;0.40;0.40;;;;;;;19.36;43.38;100992.56;5001706;28;20057;-69
2023/09/17 07:51:55;;;;;;;0.30;0.30;;;;;;;19.58;42.14;100989.13;5004809;28;20547;-69
2023/09/17 07:54:21;;;;;;;;;;;;;;;19.65;42.59;100997.03;5003083;28;20505;-68
2023/09/17 07:56:47;;;;;;;0.30;0.30;;;;;;;19.06;43.01;100983.69;5002446;28;19984;-73
2023/09/17 07:59:14;;;;;;;0.30;0.30;;;;;;;18.39;44.68;100988.28;5003176;28;20449;-69
2023/09/17 08:01:41;;;;;;;0.40;0.40;;;;;;;18.03;45.65;100986.00;5006699;28;20060;-72
2023/09/17 08:04:09;;;;;;;0.30;0.30;;;;;;;18.25;44.98;100977.94;5005516;28;20048;-72
2023/09/17 08:06:35;;;;;;;0.25;0.25;;;;;;;18.38;44.61;100979.19;5004897;28;20041;-74
2023/09/17 08:09:02;;;;;;;0.30;0.30;;;;;;;17.85;46.33;100974.59;4976229;28;20420;-69
2023/09/17 08:11:31;;;;;;;0.30;0.30;;;;;;;17.47;46.60;100972.53;4986456;28;20133;-69
2023/09/17 08:13:58;;;;;;;0.40;0.40;;;;;;;17.13;48.08;100971.47;4977927;28;20050;-69
2023/09/17 08:16:25;;;;;;;0.30;0.30;;;;;;;17.80;46.71;100960.84;4980920;28;20536;-68
2023/09/17 08:18:53;;;;;;;;;;;;;;;18.48;44.55;100928.34;4980301;28;20050;-72
2023/09/17 08:21:20;;;;;;;0.40;0.40;;;;;;;19.47;42.52;100955.22;4985454;28;20537;-72
2023/09/17 08:24:03;;;;;;;0.30;0.30;;;;;;;20.29;41.12;100949.06;4994069;28;20123;-72
2023/09/17 08:26:52;;;;;;;0.40;0.40;;;;;;;20.47;39.91;100958.41;5001579;28;20049;-72
2023/09/17 08:29:38;;;;;;;0.40;0.40;;;;;;;20.30;40.17;100950.72;5002851;28;20053;-72
2023/09/17 08:32:25;;;;;;;0.40;0.40;;;;;;;20.50;40.55;100945.81;4989325;28;20057;-69
2023/09/17 08:35:15;;;;;;;0.32;0.32;;;;;;;20.89;39.38;100933.22;5000835;28;20560;-71
2023/09/17 08:37:45;;;;;;;0.40;0.40;;;;;;;21.05;38.97;100930.03;5006159;28;20420;-68
2023/09/17 08:40:14;;;;;;;0.40;0.40;;;;;;;21.46;38.50;100934.47;4991114;28;20058;-69
2023/09/17 08:42:42;;;;;;;0.40;0.40;;;;;;;21.77;37.58;100935.59;5006283;28;20418;-69
2023/09/17 08:45:09;;;;;;;0.45;0.45;;;;;;;21.82;37.18;100929.84;5006019;28;20048;-68
2023/09/17 08:47:37;;;;;;;0.40;0.40;;;;;;;21.85;37.04;100929.19;5004738;28;20521;-68
2023/09/17 08:50:08;;;;;;;0.40;0.40;;;;;;;22.03;36.76;100932.84;4986483;28;20053;-69
2023/09/17 08:52:44;;;;;;;0.40;0.40;;;;;;;21.98;36.77;100921.88;5000831;28;20594;-69
2023/09/17 08:55:12;;;;;;;0.45;0.45;;;;;;;21.90;36.66;100908.75;4999249;28;20049;-73
2023/09/17 08:57:42;;;;;;;0.50;0.50;;;;;;;21.65;37.06;100913.91;4999302;28;20041;-73
2023/09/17 09:00:15;;;;;;;0.40;0.40;;;;;;;21.49;37.22;100921.88;5003694;28;20050;-72
2023/09/17 09:02:47;;;;;;;0.40;0.40;;;;;;;21.29;37.64;100923.25;4973813;28;20216;-73
2023/09/17 09:05:17;;;;;;;0.50;0.50;;;;;;;21.11;37.32;100906.50;4996222;28;20058;-73
2023/09/17 09:07:47;;;;;;;0.40;0.40;;;;;;;21.09;37.79;100912.41;5001009;28;20189;-72
2023/09/17 09:10:14;;;;;;;0.40;0.40;;;;;;;21.08;37.77;100902.44;4982695;28;20515;-71
2023/09/17 09:12:42;;;;;;;;;;;;;;;20.75;38.59;100899.09;4986083;28;20042;-69
2023/09/17 09:15:09;;;;;;;;;;;;;;;21.19;38.05;100908.53;4984642;28;19925;-68
2023/09/17 09:17:36;;;;;;;0.40;0.40;;;;;;;21.31;38.13;100894.00;5002375;28;19971;-71
2023/09/17 09:20:04;;;;;;;0.50;0.50;;;;;;;21.30;38.10;100897.09;4986463;28;20052;-72
2023/09/17 09:22:31;;;;;;;0.50;0.50;;;;;;;21.22;37.85;100901.47;5005951;28;20054;-68
2023/09/17 09:24:59;;;;;;;0.50;0.50;;;;;;;20.92;38.48;100884.53;5003547;28;20080;-71
2023/09/17 09:27:25;;;;;;;0.60;0.60;;;;;;;21.22;37.64;100896.75;5008805;28;20050;-70
2023/09/17 09:29:55;;;;;;;0.50;0.50;;;;;;;21.18;37.77;100881.88;5003970;28;20388;-73
2023/09/17 09:32:24;;;;;;;0.50;0.50;;;;;;;21.39;37.35;100884.88;4997527;28;20820;-69
2023/09/17 09:34:52;;;;;;;0.60;0.60;;;;;;;21.32;37.39;100883.72;5005733;28;20060;-70
2023/09/17 09:37:24;;;;;;;0.50;0.50;;;;;;;21.40;37.50;100880.13;5007066;28;20049;-67
2023/09/17 09:39:50;;;;;;;0.60;0.60;;;;;;;21.45;37.21;100870.81;5007611;28;20061;-68
2023/09/17 09:42:18;;;;;;;0.53;0.53;;;;;;;21.67;36.85;100875.50;5005554;28;20057;-69
2023/09/17 09:44:45;;;;;;;0.57;0.57;;;;;;;22.12;35.90;100876.34;5007693;28;20045;-70
2023/09/17 09:47:13;;;;;;;0.50;0.50;;;;;;;22.79;35.10;100886.16;5003187;28;20463;-70
2023/09/17 09:49:41;;;;;;;0.50;0.50;;;;;;;23.16;33.75;100880.09;5002047;28;20056;-68
2023/09/17 09:52:07;;;;;;;0.50;0.50;;;;;;;23.14;33.50;100881.59;5004068;28;20493;-71
2023/09/17 09:54:35;;;;;;;0.50;0.50;;;;;;;23.28;33.43;100876.63;5004393;28;20503;-71
2023/09/17 09:57:03;;;;;;;0.55;0.55;;;;;;;23.59;33.18;100877.44;5002446;28;20532;-70
2023/09/17 09:59:30;;;;;;;0.60;0.60;;;;;;;24.31;32.40;100873.81;5006431;28;20454;-69
2023/09/17 10:01:57;;;;;;;0.60;0.60;;;;;;;24.88;29.94;100874.25;5004697;28;20390;-69
2023/09/17 10:04:23;;;;;;;0.60;0.60;;;;;;;24.56;29.54;100868.31;5004099;28;20042;-68
2023/09/17 10:06:50;;;;;;;0.50;0.50;;;;;;;25.24;29.29;100869.84;5007512;28;20041;-69
2023/09/17 10:09:17;;;;;;;0.50;0.50;;;;;;;25.47;28.46;100866.59;5006418;28;20433;-69
2023/09/17 10:11:43;;;;;;;0.50;0.50;;;;;;;25.41;29.10;100866.00;5004770;28;20126;-72
2023/09/17 10:14:10;;;;;;;0.50;0.50;;;;;;;25.14;29.74;100859.94;5002187;28;20070;-71
2023/09/17 10:16:40;;;;;;;0.50;0.50;;;;;;;26.06;28.45;100858.78;5006332;28;20041;-69
2023/09/17 10:19:07;;;;;;;0.50;0.50;;;;;;;26.28;27.74;100849.03;5003365;28;20055;-70
2023/09/17 10:21:38;;;;;;;0.50;0.50;;;;;;;26.57;27.66;100849.03;5004628;28;20045;-70
2023/09/17 10:24:05;;;;;;;0.60;0.60;;;;;;;26.51;27.74;100856.88;5003151;28;20054;-70
2023/09/17 10:26:35;;;;;;;0.50;0.50;;;;;;;26.21;28.08;100846.03;5002976;28;20046;-69
2023/09/17 10:29:03;;;;;;;0.50;0.50;;;;;;;26.13;27.83;100841.38;5004921;28;20122;-70
2023/09/17 10:31:30;;;;;;;0.50;0.50;;;;;;;26.06;28.37;100836.38;5006334;28;20054;-69
2023/09/17 10:34:00;;;;;;;0.60;0.60;;;;;;;25.61;28.68;100841.06;5003687;28;20510;-70
2023/09/17 10:36:28;;;;;;;0.50;0.50;;;;;;;25.87;28.51;100837.03;5009143;28;20147;-70
2023/09/17 10:38:57;;;;;;;0.60;0.60;;;;;;;26.23;28.25;100832.47;5002694;28;20073;-71
2023/09/17 10:41:25;;;;;;;0.60;0.60;;;;;;;26.25;28.08;100830.13;4995235;28;20042;-71
2023/09/17 10:43:52;;;;;;;0.60;0.60;;;;;;;26.15;28.43;100830.63;4997632;28;20066;-71
2023/09/17 10:46:21;;;;;;;0.60;0.60;;;;;;;26.58;28.13;100833.84;4999733;28;20046;-70
2023/09/17 10:48:50;;;;;;;0.60;0.60;;;;;;;26.40;28.15;100825.75;4980964;28;20041;-71
2023/09/17 10:51:19;;;;;;;0.77;0.77;;;;;;;26.58;27.71;100819.81;4998314;28;20104;-71
2023/09/17 10:53:45;;;;;;;0.90;0.90;;;;;;;26.72;27.32;100811.78;4995337;28;20037;-72
2023/09/17 10:56:15;;;;;;;0.80;0.80;;;;;;;26.44;27.39;100821.06;4998660;28;20065;-69
2023/09/17 10:58:44;;;;;;;0.90;0.90;;;;;;;26.85;26.65;100820.06;5002825;28;20116;-71
2023/09/17 11:01:14;;;;;;;0.90;0.90;;;;;;;27.08;26.46;100813.88;5006657;28;20053;-71
2023/09/17 11:03:44;;;;;;;0.90;0.90;;;;;;;27.25;26.53;100805.06;5002666;28;20070;-72
2023/09/17 11:06:16;;;;;;;1.00;1.00;;;;;;;28.16;25.83;100792.94;5001373;28;20037;-70
2023/09/17 11:08:46;;;;;;;1.08;1.08;;;;;;;28.64;24.71;100787.03;4656619;28;10000540;-71
2023/09/17 11:11:14;;;;;;;1.00;1.00;;;;;;;28.36;25.19;100785.31;5000620;28;20050;-71
2023/09/17 11:13:43;;;;;;;1.10;1.10;;;;;;;28.83;24.27;100785.34;4983163;28;20045;-72
2023/09/17 11:16:09;;;;;;;1.10;1.10;;;;;;;28.15;24.18;100788.50;5004466;28;20049;-71
2023/09/17 11:18:37;;;;;;;1.00;1.00;;;;;;;27.59;25.17;100782.19;5001021;28;20038;-71
2023/09/17 11:21:09;;;;;;;1.10;1.10;;;;;;;27.81;24.75;100794.69;5003516;28;20042;-71
2023/09/17 11:23:41;;;;;;;1.00;1.00;;;;;;;27.57;25.26;100781.75;5003106;28;20474;-71
2023/09/17 11:26:13;;;;;;;1.05;1.05;;;;;;;27.86;25.05;100776.69;4999163;28;20124;-71
2023/09/17 11:28:39;;;;;;;1.10;1.10;;;;;;;27.30;25.78;100787.13;4990730;28;20136;-70
2023/09/17 11:31:14;;;;;;;1.10;1.10;;;;;;;27.55;25.91;100770.88;4991293;28;20042;-70
2023/09/17 11:33:42;;;;;;;1.10;1.10;;;;;;;28.29;25.38;100766.31;4995537;28;20038;-71